Impacts METAR Board
IDs:

KMDW - Chicago/Midway Intl, IL, US

Updated at: 2000 UTC 23 Sep 2018
Potential Impact None Slight Moderate High
Time 23/08Z 23/09Z 23/10Z 23/11Z 23/12Z 23/13Z 23/14Z 23/15Z 23/16Z 23/17Z 23/18Z 23/19Z 23/20Z
Temp56 55 54 53 53 55 59 64 66 68 68 68 69
Dewpt46 46 47 46 47 48 50 50 50 49 50 51 52
Altim30.18 30.17 30.17 30.17 30.18 30.19 30.19 30.20 30.19 30.18 30.16 30.13 30.11
VIS10 10 10 10 10 10 10 10 10 10 10 10 10
CIG-- -- -- -- -- -- -- -- -- -- -- -- --
CoverCLRCLRCLRFEWFEWFEWFEWFEWFEWFEWFEWFEWCLR
FltCatVFRVFRVFRVFRVFRVFRVFRVFRVFRVFRVFRVFRVFR
WX--------------------------
WDir01401500016015011010060807090
WSpd3 3 5 0 0 4 4 3 5 8 6 7 9
WGst-- -- -- -- -- -- -- -- -- -- 14 16 14
Raw hourly METARs
KMDW 230753Z VRB03KT 10SM CLR 13/08 A3018 RMK AO2 SLP217 T01330078
KMDW 230853Z 14003KT 10SM CLR 13/08 A3017 RMK AO2 SLP216 T01280078 58001
KMDW 230953Z 15005KT 10SM CLR 12/08 A3017 RMK AO2 SLP215 T01220083
KMDW 231053Z 00000KT 10SM FEW045 12/08 A3017 RMK AO2 SLP216 T01170078
KMDW 231153Z 00000KT 10SM FEW030 12/08 A3018 RMK AO2 SLP219 T01170083 10139 20117 53002
KMDW 231253Z 16004KT 10SM FEW030 13/09 A3019 RMK AO2 SLP220 T01280089
KMDW 231353Z 15004KT 10SM FEW030 15/10 A3019 RMK AO2 SLP223 T01500100
KMDW 231453Z 11003KT 10SM FEW030 18/10 A3020 RMK AO2 SLP224 T01780100 51007
KMDW 231553Z 10005KT 10SM FEW030 19/10 A3019 RMK AO2 SLP221 T01890100
KMDW 231653Z 06008KT 10SM FEW030 20/09 A3018 RMK AO2 SLP216 T02000094
KMDW 231753Z 08006G14KT 10SM FEW030 20/10 A3016 RMK AO2 SLP211 T02000100 10206 20117 58013
KMDW 231853Z 07007G16KT 040V100 10SM FEW030 20/11 A3013 RMK AO2 WSHFT 1829 SLP202 T02000106
KMDW 231953Z 09009G14KT 10SM CLR 21/11 A3011 RMK AO2 SLP193 T02060111



Page loaded:  20:45 UTC  |   01:45 PM Pacific  |   02:45 PM Mountain  |   03:45 PM Central  |   04:45 PM Eastern

 

ADVISORIES

FORECASTS

FORECASTS

OBSERVATIONS

USER TOOLS

ABOUT US